createdAt,value
2022-09-23T00:00:37.888Z,2.58
2022-09-23T00:03:05.000Z,2.75
2022-09-23T00:05:31.925Z,1.55
2022-09-23T00:07:58.842Z,2.15
2022-09-23T00:10:28.390Z,1.83
2022-09-23T00:12:55.323Z,2.58
2022-09-23T00:15:21.796Z,1.88
2022-09-23T00:17:48.458Z,2.00
2022-09-23T00:20:14.833Z,1.75
2022-09-23T00:22:41.212Z,3.42
2022-09-23T00:25:08.838Z,3.05
2022-09-23T00:27:36.372Z,2.50
2022-09-23T00:30:05.140Z,5.47
2022-09-23T00:32:31.551Z,2.85
2022-09-23T00:34:58.115Z,4.97
2022-09-23T00:37:24.487Z,6.03
2022-09-23T00:39:50.819Z,5.22
2022-09-23T00:42:20.303Z,10.05
2022-09-23T00:44:55.846Z,3.00
2022-09-23T00:47:44.486Z,4.70
2022-09-23T00:50:18.788Z,3.92
2022-09-23T00:52:45.731Z,4.72
2022-09-23T00:55:17.852Z,3.03
2022-09-23T00:57:45.427Z,5.32
2022-09-23T01:00:12.967Z,3.63
2022-09-23T01:02:39.589Z,4.32
2022-09-23T01:05:07.444Z,3.60
2022-09-23T01:07:34.269Z,8.77
2022-09-23T01:10:01.838Z,2.75
2022-09-23T01:12:57.208Z,2.40
2022-09-23T01:15:46.396Z,3.70
2022-09-23T01:18:46.406Z,3.95
2022-09-23T01:21:55.197Z,3.03
2022-09-23T01:24:46.667Z,3.58
2022-09-23T01:27:47.279Z,3.50
2022-09-23T01:30:50.347Z,2.47
2022-09-23T01:33:46.117Z,4.03
2022-09-23T01:36:42.419Z,3.47
2022-09-23T01:42:06.142Z,3.53
2022-09-23T01:44:53.971Z,6.75
2022-09-23T01:47:36.246Z,4.88
2022-09-23T01:50:28.714Z,6.22
2022-09-23T01:52:57.999Z,5.97
2022-09-23T01:55:31.734Z,5.05
2022-09-23T01:58:09.997Z,8.55
2022-09-23T02:00:42.073Z,5.40
2022-09-23T02:03:18.864Z,5.53
2022-09-23T02:05:50.822Z,9.60
2022-09-23T02:08:31.721Z,4.28
2022-09-23T02:11:07.030Z,7.30
2022-09-23T02:13:48.710Z,3.22
2022-09-23T02:16:23.175Z,6.13
2022-09-23T02:18:57.814Z,6.17
2022-09-23T02:21:29.646Z,4.68
2022-09-23T02:24:03.887Z,6.47
2022-09-23T02:26:36.047Z,3.05
2022-09-23T02:29:38.039Z,3.80
2022-09-23T02:32:21.311Z,3.30
2022-09-23T02:35:04.026Z,3.90
2022-09-23T02:37:48.735Z,4.47
2022-09-23T02:40:31.952Z,5.25
2022-09-23T02:43:42.708Z,5.60
2022-09-23T02:46:09.761Z,5.20
2022-09-23T02:48:42.610Z,5.40
2022-09-23T02:51:10.162Z,3.72
2022-09-23T02:53:37.499Z,4.05
2022-09-23T02:56:15.121Z,3.47
2022-09-23T02:58:41.729Z,3.65
2022-09-23T03:01:59.238Z,3.20
2022-09-23T03:04:53.593Z,3.78
2022-09-23T03:07:44.974Z,4.25
2022-09-23T03:10:29.823Z,3.00
2022-09-23T03:13:09.808Z,2.60
2022-09-23T03:15:51.998Z,4.15
2022-09-23T03:18:42.667Z,5.68
2022-09-23T03:21:12.258Z,6.40
2022-09-23T03:23:41.779Z,3.45
2022-09-23T03:26:17.393Z,6.57
2022-09-23T03:28:45.883Z,3.63
2022-09-23T03:31:14.153Z,5.30
2022-09-23T03:33:46.770Z,3.03
2022-09-23T03:36:16.683Z,4.70
2022-09-23T03:38:45.262Z,4.95
2022-09-23T03:41:15.413Z,3.50
2022-09-23T03:43:41.882Z,4.80
2022-09-23T03:46:08.368Z,4.05
2022-09-23T03:48:34.746Z,9.38
2022-09-23T03:51:17.685Z,6.18
2022-09-23T03:53:43.974Z,3.10
2022-09-23T03:56:10.366Z,4.43
2022-09-23T03:58:36.734Z,4.82
2022-09-23T04:01:03.064Z,8.32
2022-09-23T04:03:29.996Z,6.03
2022-09-23T04:05:56.394Z,6.78
2022-09-23T04:08:22.846Z,9.20
2022-09-23T04:10:52.883Z,9.43
2022-09-23T04:13:21.085Z,7.07
2022-09-23T04:15:50.193Z,5.28
2022-09-23T04:18:16.486Z,10.23
2022-09-23T04:20:43.279Z,6.05
2022-09-23T04:23:09.596Z,11.48
2022-09-23T04:25:35.867Z,7.88
2022-09-23T04:28:02.278Z,9.35
2022-09-23T04:30:28.557Z,9.98
2022-09-23T04:32:54.907Z,9.68
2022-09-23T04:35:21.177Z,11.40
2022-09-23T04:37:48.016Z,12.82
2022-09-23T04:40:14.562Z,9.40
2022-09-23T04:42:40.928Z,8.60
2022-09-23T04:45:07.734Z,10.43
2022-09-23T04:47:34.097Z,12.13
2022-09-23T04:50:00.361Z,11.20
2022-09-23T04:52:26.865Z,7.13
2022-09-23T04:54:53.148Z,8.30
2022-09-23T04:57:19.501Z,10.27
2022-09-23T04:59:45.768Z,10.93
2022-09-23T05:02:12.244Z,6.10
2022-09-23T05:04:38.623Z,10.75
2022-09-23T05:07:04.979Z,9.65
2022-09-23T05:09:33.322Z,7.63
2022-09-23T05:11:59.765Z,11.55
2022-09-23T05:14:26.043Z,10.90
2022-09-23T05:16:52.322Z,8.57
2022-09-23T05:19:18.914Z,6.93
2022-09-23T05:21:45.281Z,7.57
2022-09-23T05:24:12.149Z,7.88
2022-09-23T05:26:38.527Z,10.55
2022-09-23T05:29:04.951Z,8.23
2022-09-23T05:31:31.450Z,17.15
2022-09-23T05:34:00.237Z,8.95
2022-09-23T05:36:27.990Z,9.27
2022-09-23T05:38:54.712Z,10.27
2022-09-23T05:41:21.813Z,13.63
2022-09-23T05:43:50.472Z,22.02
2022-09-23T05:46:19.264Z,24.38
2022-09-23T05:48:46.329Z,10.63
2022-09-23T05:51:16.267Z,7.82
2022-09-23T05:53:45.024Z,8.48
2022-09-23T05:56:16.346Z,6.03
2022-09-23T05:58:43.226Z,8.18
2022-09-23T06:01:15.206Z,8.38
2022-09-23T06:03:41.652Z,9.25
2022-09-23T06:06:12.330Z,7.38
2022-09-23T06:08:38.749Z,9.18
2022-09-23T06:11:07.059Z,5.20
2022-09-23T06:13:35.025Z,4.65
2022-09-23T06:16:02.135Z,4.88
2022-09-23T06:18:28.558Z,6.70
2022-09-23T06:20:54.838Z,5.88
2022-09-23T06:23:25.310Z,6.82
2022-09-23T06:25:52.811Z,4.45
2022-09-23T06:28:19.972Z,4.45
2022-09-23T06:30:47.123Z,6.20
2022-09-23T06:33:14.554Z,4.13
2022-09-23T06:35:42.136Z,5.25
2022-09-23T06:38:11.208Z,7.63
2022-09-23T06:40:37.648Z,7.78
2022-09-23T06:43:03.996Z,7.00
2022-09-23T06:45:30.360Z,7.72
2022-09-23T06:47:58.205Z,4.05
2022-09-23T06:50:26.262Z,4.43
2022-09-23T06:52:56.488Z,11.13
2022-09-23T06:55:27.013Z,6.40
2022-09-23T06:57:54.436Z,10.25
2022-09-23T07:00:21.019Z,6.72
2022-09-23T07:02:47.572Z,5.40
2022-09-23T07:05:14.371Z,5.15
2022-09-23T07:07:40.831Z,5.53
2022-09-23T07:10:07.453Z,4.38
2022-09-23T07:12:34.542Z,5.07
2022-09-23T07:15:01.194Z,7.07
2022-09-23T07:17:27.689Z,4.00
2022-09-23T07:19:54.131Z,5.63
2022-09-23T07:22:24.409Z,6.00
2022-09-23T07:24:51.601Z,6.25
2022-09-23T07:27:19.449Z,6.70
2022-09-23T07:29:48.882Z,5.93
2022-09-23T07:32:15.602Z,6.25
2022-09-23T07:34:42.084Z,6.88
2022-09-23T07:37:08.993Z,4.03
2022-09-23T07:39:35.387Z,4.80
2022-09-23T07:42:02.022Z,4.82
2022-09-23T07:44:28.660Z,11.25
2022-09-23T07:46:55.011Z,8.13
2022-09-23T07:49:21.672Z,5.10
2022-09-23T07:51:48.062Z,6.35
2022-09-23T07:54:16.478Z,4.55
2022-09-23T07:56:44.089Z,4.72
2022-09-23T07:59:16.083Z,5.15
2022-09-23T08:01:48.297Z,8.80
2022-09-23T08:04:19.250Z,7.43
2022-09-23T08:06:48.190Z,5.05
2022-09-23T08:09:16.068Z,6.47
2022-09-23T08:11:42.567Z,9.75
2022-09-23T08:14:13.257Z,4.47
2022-09-23T08:16:41.004Z,5.15
2022-09-23T08:19:08.170Z,7.57
2022-09-23T08:21:34.938Z,4.88
2022-09-23T08:24:01.424Z,12.80
2022-09-23T08:26:28.485Z,6.30
2022-09-23T08:28:54.958Z,5.93
2022-09-23T08:31:22.589Z,4.43
2022-09-23T08:33:57.037Z,7.15
2022-09-23T08:36:24.726Z,6.30
2022-09-23T08:38:51.539Z,4.88
2022-09-23T08:41:40.808Z,11.60
2022-09-23T08:44:13.421Z,6.28
2022-09-23T08:47:00.182Z,4.68
2022-09-23T08:49:36.701Z,5.63
2022-09-23T08:52:11.960Z,4.47
2022-09-23T08:54:38.243Z,5.50
2022-09-23T08:57:05.752Z,7.28
2022-09-23T08:59:39.595Z,4.85
2022-09-23T09:02:18.043Z,3.15
2022-09-23T09:04:58.866Z,3.67
2022-09-23T09:07:36.601Z,2.50
2022-09-23T09:10:24.631Z,2.83
2022-09-23T09:12:59.742Z,3.35
2022-09-23T09:15:28.452Z,3.28
2022-09-23T09:18:18.798Z,12.05
2022-09-23T09:21:05.080Z,3.67
2022-09-23T09:23:37.397Z,3.08
2022-09-23T09:26:06.317Z,1.92
2022-09-23T09:28:43.436Z,1.70
2022-09-23T09:31:33.040Z,2.00
2022-09-23T09:34:04.997Z,1.75
2022-09-23T09:36:40.589Z,4.93
2022-09-23T09:39:12.749Z,1.92
2022-09-23T09:41:44.813Z,2.10
2022-09-23T09:44:38.679Z,2.80
2022-09-23T09:47:10.835Z,2.15
2022-09-23T09:50:06.110Z,2.17
2022-09-23T09:52:32.533Z,2.55
2022-09-23T09:55:14.031Z,1.52
2022-09-23T09:57:57.874Z,6.63
2022-09-23T10:00:24.223Z,7.55
2022-09-23T10:02:55.283Z,1.50
2022-09-23T10:05:33.759Z,1.00
2022-09-23T10:08:30.353Z,2.10
2022-09-23T10:11:00.945Z,2.05
2022-09-23T10:13:28.046Z,1.35
2022-09-23T10:15:54.413Z,4.38
2022-09-23T10:18:26.239Z,1.63
2022-09-23T10:20:52.590Z,2.03
2022-09-23T10:23:29.016Z,1.80
2022-09-23T10:26:05.309Z,2.40
2022-09-23T10:28:48.627Z,1.40
2022-09-23T10:31:36.672Z,1.45
2022-09-23T10:34:26.393Z,2.17
2022-09-23T10:37:02.592Z,1.10
2022-09-23T10:39:29.833Z,4.78
2022-09-23T10:42:03.681Z,2.42
2022-09-23T10:44:44.442Z,2.55
2022-09-23T10:47:30.441Z,5.45
2022-09-23T10:52:54.750Z,1.80
2022-09-23T10:55:36.921Z,3.33
2022-09-23T10:58:27.986Z,1.83
2022-09-23T11:01:05.512Z,1.40
2022-09-23T11:03:56.664Z,1.75
2022-09-23T11:06:38.371Z,2.88
2022-09-23T11:09:21.722Z,1.50
2022-09-23T11:11:59.833Z,1.40
2022-09-23T11:14:29.093Z,0.95
2022-09-23T11:17:05.354Z,2.13
2022-09-23T11:19:49.924Z,1.92
2022-09-23T11:22:41.153Z,1.20
2022-09-23T11:25:52.499Z,1.00
2022-09-23T11:28:46.772Z,1.15
2022-09-23T11:31:42.012Z,1.25
2022-09-23T11:34:26.107Z,1.17
2022-09-23T11:36:59.154Z,2.80
2022-09-23T11:39:35.064Z,1.63
2022-09-23T11:42:02.777Z,1.70
2022-09-23T11:44:35.439Z,0.90
2022-09-23T11:47:08.876Z,1.40
2022-09-23T11:49:41.030Z,1.45
2022-09-23T11:52:20.748Z,1.42
2022-09-23T11:54:51.653Z,1.63
2022-09-23T11:57:48.853Z,1.15
2022-09-23T12:00:23.814Z,1.95
2022-09-23T12:03:05.474Z,0.98
2022-09-23T12:05:41.920Z,1.45
2022-09-23T12:08:24.076Z,0.70
2022-09-23T12:11:05.337Z,0.80
2022-09-23T12:14:00.470Z,1.33
2022-09-23T12:16:49.882Z,0.93
2022-09-23T12:20:04.586Z,1.13
2022-09-23T12:23:08.627Z,1.25
2022-09-23T12:25:46.852Z,1.48
2022-09-23T12:28:25.073Z,1.25
2022-09-23T12:30:54.813Z,1.15
2022-09-23T12:33:26.859Z,1.20
2022-09-23T12:35:55.849Z,2.92
2022-09-23T12:38:38.405Z,0.90
2022-09-23T12:41:22.742Z,3.58
2022-09-23T12:43:59.996Z,0.80
2022-09-23T12:46:27.728Z,1.38
2022-09-23T12:48:54.111Z,1.58
2022-09-23T12:51:20.841Z,2.15
2022-09-23T12:54:14.169Z,3.83
2022-09-23T12:56:40.396Z,1.67
2022-09-23T12:59:10.506Z,1.27
2022-09-23T13:01:38.052Z,2.83
2022-09-23T13:04:04.600Z,0.50
2022-09-23T13:06:41.565Z,1.08
2022-09-23T13:09:17.044Z,0.80
2022-09-23T13:14:18.580Z,1.23
2022-09-23T13:16:45.755Z,1.77
2022-09-23T13:19:27.490Z,1.20
2022-09-23T13:21:54.121Z,1.27
2022-09-23T13:24:24.609Z,1.08
2022-09-23T13:26:56.023Z,1.50
2022-09-23T13:29:43.802Z,0.82
2022-09-23T13:32:15.791Z,1.63
2022-09-23T13:34:43.812Z,2.15
2022-09-23T13:37:22.728Z,3.60
2022-09-23T13:39:49.681Z,1.30
2022-09-23T13:42:25.901Z,1.02
2022-09-23T13:44:54.545Z,1.98
2022-09-23T13:47:21.592Z,0.75
2022-09-23T13:49:48.480Z,0.63
2022-09-23T13:52:27.768Z,1.63
2022-09-23T13:55:00.533Z,2.08
2022-09-23T13:57:34.379Z,1.85
2022-09-23T14:00:24.609Z,0.70
2022-09-23T14:02:52.321Z,0.75
2022-09-23T14:05:27.426Z,1.38
2022-09-23T14:07:56.313Z,0.88
2022-09-23T14:10:25.444Z,1.08
2022-09-23T14:12:54.356Z,4.70
2022-09-23T14:15:22.387Z,0.95
2022-09-23T14:17:52.252Z,1.65
2022-09-23T14:20:24.007Z,0.70
2022-09-23T14:23:06.432Z,1.02
2022-09-23T14:25:34.556Z,0.75
2022-09-23T14:28:05.176Z,1.20
2022-09-23T14:30:31.987Z,1.13
2022-09-23T14:33:05.540Z,1.70
2022-09-23T14:35:46.426Z,1.00
2022-09-23T14:38:20.875Z,1.50
2022-09-23T14:40:57.795Z,0.60
2022-09-23T14:43:27.487Z,2.10
2022-09-23T14:45:58.885Z,0.73
2022-09-23T14:48:28.459Z,1.02
2022-09-23T14:50:58.542Z,0.73
2022-09-23T14:53:42.014Z,1.05
2022-09-23T14:56:18.687Z,1.35
2022-09-23T14:58:55.948Z,1.40
2022-09-23T15:01:25.730Z,0.90
2022-09-23T15:04:11.205Z,2.72
2022-09-23T15:06:40.475Z,2.05
2022-09-23T15:09:07.150Z,1.58
2022-09-23T15:11:35.487Z,0.60
2022-09-23T15:14:33.219Z,1.77
2022-09-23T15:16:54.485Z,2.30
2022-09-23T15:19:22.769Z,1.75
2022-09-23T15:21:53.418Z,2.08
2022-09-23T15:24:42.521Z,0.57
2022-09-23T15:27:22.861Z,0.80
2022-09-23T15:29:50.104Z,0.80
2022-09-23T15:32:16.460Z,1.25
2022-09-23T15:34:42.835Z,0.88
2022-09-23T15:37:11.342Z,3.83
2022-09-23T15:39:37.804Z,3.40
2022-09-23T15:42:04.316Z,2.47
2022-09-23T15:44:30.606Z,1.48
2022-09-23T15:46:57.751Z,4.90
2022-09-23T15:49:34.983Z,2.38
2022-09-23T15:52:02.645Z,32.03
2022-09-23T15:54:29.862Z,6.88
2022-09-23T15:56:56.369Z,3.45
2022-09-23T15:59:23.447Z,4.97
2022-09-23T16:01:52.050Z,1.52
2022-09-23T16:04:18.603Z,1.10
2022-09-23T16:06:45.160Z,13.07
2022-09-23T16:09:11.877Z,3.85
2022-09-23T16:11:38.249Z,3.30
2022-09-23T16:14:04.612Z,1.98
2022-09-23T16:16:31.063Z,2.88
2022-09-23T16:18:57.427Z,3.65
2022-09-23T16:21:26.327Z,4.32
2022-09-23T16:23:53.354Z,9.52
2022-09-23T16:26:28.940Z,1.35
2022-09-23T16:28:56.650Z,2.53
2022-09-23T16:31:24.497Z,3.95
2022-09-23T16:33:52.277Z,2.88
2022-09-23T16:36:27.440Z,17.13
2022-09-23T16:38:54.722Z,4.93
2022-09-23T16:41:25.583Z,8.82
2022-09-23T16:43:52.498Z,10.80
2022-09-23T16:46:20.187Z,8.75
2022-09-23T16:48:52.114Z,13.85
2022-09-23T16:51:21.420Z,10.20
2022-09-23T16:53:49.156Z,12.00
2022-09-23T16:56:16.544Z,11.48
2022-09-23T16:58:43.698Z,13.45
2022-09-23T17:01:15.042Z,11.02
2022-09-23T17:03:41.369Z,8.77
2022-09-23T17:06:10.366Z,13.07
2022-09-23T17:08:36.866Z,11.98
2022-09-23T17:11:03.322Z,7.78
2022-09-23T17:13:29.918Z,6.82
2022-09-23T17:15:56.492Z,10.98
2022-09-23T17:18:22.879Z,15.07
2022-09-23T17:21:02.407Z,6.32
2022-09-23T17:23:30.581Z,6.55
2022-09-23T17:25:58.233Z,5.40
2022-09-23T17:28:24.594Z,4.80
2022-09-23T17:30:55.902Z,6.63
2022-09-23T17:33:22.185Z,2.95
2022-09-23T17:35:48.567Z,4.22
2022-09-23T17:38:14.943Z,9.13
2022-09-23T17:40:41.262Z,8.15
2022-09-23T17:43:08.063Z,7.30
2022-09-23T17:45:37.582Z,7.32
2022-09-23T17:48:03.910Z,8.95
2022-09-23T17:50:30.297Z,11.55
2022-09-23T17:52:58.615Z,5.18
2022-09-23T17:55:25.601Z,8.32
2022-09-23T17:57:51.876Z,6.13
2022-09-23T18:00:18.287Z,5.40
2022-09-23T18:02:44.854Z,10.38
2022-09-23T18:05:11.341Z,6.00
2022-09-23T18:07:37.707Z,5.35
2022-09-23T18:10:04.384Z,6.88
2022-09-23T18:12:30.753Z,6.18
2022-09-23T18:14:57.172Z,12.43
2022-09-23T18:17:23.456Z,11.50
2022-09-23T18:19:49.892Z,14.48
2022-09-23T18:22:16.242Z,18.20
2022-09-23T18:24:42.594Z,13.68
2022-09-23T18:27:08.866Z,16.83
2022-09-23T18:29:35.956Z,13.40
2022-09-23T18:32:02.799Z,10.60
2022-09-23T18:34:29.640Z,10.60
2022-09-23T18:36:55.986Z,18.15
2022-09-23T18:39:22.397Z,9.93
2022-09-23T18:41:48.793Z,14.00
2022-09-23T18:44:16.121Z,12.75
2022-09-23T18:46:42.823Z,11.85
2022-09-23T18:49:09.373Z,11.05
2022-09-23T18:51:38.504Z,8.70
2022-09-23T18:54:07.116Z,8.63
2022-09-23T18:56:39.484Z,9.70
2022-09-23T18:59:07.403Z,11.82
2022-09-23T19:01:37.647Z,8.50
2022-09-23T19:04:04.992Z,10.20
2022-09-23T19:06:32.887Z,7.03
2022-09-23T19:08:59.422Z,15.07
2022-09-23T19:11:25.763Z,10.55
2022-09-23T19:13:56.707Z,9.80
2022-09-23T19:16:23.957Z,9.60
2022-09-23T19:18:51.148Z,10.95
2022-09-23T19:21:20.160Z,11.65
2022-09-23T19:23:49.304Z,6.95
2022-09-23T19:26:18.887Z,11.30
2022-09-23T19:28:54.121Z,34.42
2022-09-23T19:31:25.709Z,41.35
2022-09-23T19:34:00.578Z,34.17
2022-09-23T19:36:34.604Z,42.72
2022-09-23T19:39:03.373Z,57.40
2022-09-23T19:41:31.488Z,77.38
2022-09-23T19:43:58.367Z,54.13
2022-09-23T19:46:24.822Z,31.60
2022-09-23T19:48:51.160Z,117.90
2022-09-23T19:51:17.438Z,77.03
2022-09-23T19:53:43.806Z,53.97
2022-09-23T19:56:10.088Z,54.17
2022-09-23T19:58:36.361Z,42.40
2022-09-23T20:01:07.234Z,29.83
2022-09-23T20:03:33.741Z,34.70
2022-09-23T20:06:00.026Z,35.90
2022-09-23T20:08:26.378Z,31.92
2022-09-23T20:10:53.054Z,72.18
2022-09-23T20:13:19.347Z,24.40
2022-09-23T20:15:46.669Z,24.23
2022-09-23T20:18:13.102Z,34.42
2022-09-23T20:20:39.806Z,36.03
2022-09-23T20:23:06.190Z,24.17
2022-09-23T20:25:32.560Z,22.42
2022-09-23T20:27:58.830Z,10.90
2022-09-23T20:30:25.168Z,10.23
2022-09-23T20:32:51.438Z,10.85
2022-09-23T20:35:17.876Z,11.35
2022-09-23T20:37:44.143Z,9.57
2022-09-23T20:40:10.727Z,12.20
2022-09-23T20:42:37.195Z,12.77
2022-09-23T20:45:03.812Z,14.75
2022-09-23T20:47:32.745Z,15.73
2022-09-23T20:49:59.426Z,19.98
2022-09-23T20:52:26.153Z,18.60
2022-09-23T20:54:52.521Z,15.82
2022-09-23T20:57:19.050Z,15.82
2022-09-23T20:59:52.090Z,31.15
2022-09-23T21:02:18.737Z,21.10
2022-09-23T21:04:45.160Z,13.32
2022-09-23T21:07:11.604Z,12.32
2022-09-23T21:09:37.878Z,12.75
2022-09-23T21:12:04.232Z,12.10
2022-09-23T21:14:30.922Z,12.50
2022-09-23T21:16:57.273Z,12.43
2022-09-23T21:19:23.618Z,12.63
2022-09-23T21:21:49.995Z,7.40
2022-09-23T21:24:48.745Z,11.45
2022-09-23T21:27:02.856Z,13.10
2022-09-23T21:29:29.262Z,14.88
2022-09-23T21:31:55.605Z,14.60
2022-09-23T21:34:22.018Z,11.68
2022-09-23T21:36:48.404Z,12.95
2022-09-23T21:39:14.824Z,8.82
2022-09-23T21:41:41.099Z,13.98
2022-09-23T21:44:07.731Z,13.85
2022-09-23T21:46:34.385Z,15.38
2022-09-23T21:49:01.329Z,9.27
2022-09-23T21:51:30.434Z,13.23
2022-09-23T21:53:58.099Z,9.95
2022-09-23T21:56:30.158Z,10.57
2022-09-23T21:58:58.280Z,24.20
2022-09-23T22:01:29.584Z,12.48
2022-09-23T22:04:01.206Z,17.10
2022-09-23T22:06:28.315Z,12.02
2022-09-23T22:08:58.123Z,12.93
2022-09-23T22:11:26.415Z,12.52
2022-09-23T22:13:52.757Z,9.32
2022-09-23T22:16:19.264Z,9.43
2022-09-23T22:18:45.700Z,10.93
2022-09-23T22:21:12.017Z,15.38
2022-09-23T22:23:38.519Z,14.15
2022-09-23T22:26:04.930Z,12.27
2022-09-23T22:28:32.872Z,10.90
2022-09-23T22:30:59.185Z,17.00
2022-09-23T22:33:25.596Z,10.80
2022-09-23T22:35:52.234Z,12.90
2022-09-23T22:38:18.835Z,13.90
2022-09-23T22:40:45.289Z,78.80
2022-09-23T22:43:11.592Z,142.30
2022-09-23T22:45:38.122Z,65.63
2022-09-23T22:48:04.830Z,67.40
2022-09-23T22:50:31.492Z,26.20
2022-09-23T22:52:57.777Z,18.40
2022-09-23T22:55:24.064Z,14.48
2022-09-23T22:57:50.702Z,24.25
2022-09-23T23:00:16.994Z,30.02
2022-09-23T23:02:43.354Z,25.02
2022-09-23T23:05:10.167Z,17.58
2022-09-23T23:07:36.597Z,24.30
2022-09-23T23:10:03.629Z,14.13
2022-09-23T23:12:30.070Z,13.20
2022-09-23T23:14:56.411Z,13.73
2022-09-23T23:17:22.763Z,13.95
2022-09-23T23:19:49.095Z,13.35
2022-09-23T23:22:15.536Z,14.65
2022-09-23T23:24:42.060Z,9.52
2022-09-23T23:27:08.549Z,12.85
2022-09-23T23:29:34.899Z,9.18
2022-09-23T23:32:01.325Z,7.38
2022-09-23T23:34:27.975Z,10.90
2022-09-23T23:36:54.769Z,10.95
2022-09-23T23:39:22.919Z,13.23
2022-09-23T23:41:52.576Z,7.57
2022-09-23T23:44:18.866Z,8.32
2022-09-23T23:46:45.253Z,10.45
2022-09-23T23:49:11.617Z,8.85
2022-09-23T23:51:37.878Z,8.35
2022-09-23T23:54:04.499Z,10.82
2022-09-23T23:56:31.101Z,10.00
2022-09-23T23:58:59.689Z,7.90
